Map

Track Data

SID SEASON NUMBER BASIN SUBBASIN NAME ISO_TIME NATURE LAT LON WMO_WIND WMO_PRES WMO_AGENCY TRACK_TYPE DIST2LAND LANDFALL IFLAG USA_AGENCY USA_ATCF_ID USA_LAT USA_LON USA_RECORD USA_STATUS USA_WIND USA_PRES USA_SSHS USA_R34_NE USA_R34_SE USA_R34_SW USA_R34_NW USA_R50_NE USA_R50_SE USA_R50_SW USA_R50_NW USA_R64_NE USA_R64_SE USA_R64_SW USA_R64_NW USA_POCI USA_ROCI USA_RMW USA_EYE TOKYO_LAT TOKYO_LON TOKYO_GRADE TOKYO_WIND TOKYO_PRES TOKYO_R50_DIR TOKYO_R50_LONG TOKYO_R50_SHORT TOKYO_R30_DIR TOKYO_R30_LONG TOKYO_R30_SHORT TOKYO_LAND CMA_LAT CMA_LON CMA_CAT CMA_WIND CMA_PRES HKO_LAT HKO_LON HKO_CAT HKO_WIND HKO_PRES NEWDELHI_LAT NEWDELHI_LON NEWDELHI_GRADE NEWDELHI_WIND NEWDELHI_PRES NEWDELHI_CI NEWDELHI_DP NEWDELHI_POCI REUNION_LAT REUNION_LON REUNION_TYPE REUNION_WIND REUNION_PRES REUNION_TNUM REUNION_CI REUNION_RMW REUNION_R34_NE REUNION_R34_SE REUNION_R34_SW REUNION_R34_NW REUNION_R50_NE REUNION_R50_SE REUNION_R50_SW REUNION_R50_NW REUNION_R64_NE REUNION_R64_SE REUNION_R64_SW REUNION_R64_NW BOM_LAT BOM_LON BOM_TYPE BOM_WIND BOM_PRES BOM_TNUM BOM_CI BOM_RMW BOM_R34_NE BOM_R34_SE BOM_R34_SW BOM_R34_NW BOM_R50_NE BOM_R50_SE BOM_R50_SW BOM_R50_NW BOM_R64_NE BOM_R64_SE BOM_R64_SW BOM_R64_NW BOM_ROCI BOM_POCI BOM_EYE BOM_POS_METHOD BOM_PRES_METHOD NADI_LAT NADI_LON NADI_CAT NADI_WIND NADI_PRES WELLINGTON_LAT WELLINGTON_LON WELLINGTON_WIND WELLINGTON_PRES DS824_LAT DS824_LON DS824_STAGE DS824_WIND DS824_PRES TD9636_LAT TD9636_LON TD9636_STAGE TD9636_WIND TD9636_PRES TD9635_LAT TD9635_LON TD9635_WIND TD9635_PRES TD9635_ROCI NEUMANN_LAT NEUMANN_LON NEUMANN_CLASS NEUMANN_WIND NEUMANN_PRES MLC_LAT MLC_LON MLC_CLASS MLC_WIND MLC_PRES USA_GUST BOM_GUST BOM_GUST_PER REUNION_GUST REUNION_GUST_PER USA_SEAHGT USA_SEARAD_NE USA_SEARAD_SE USA_SEARAD_SW USA_SEARAD_NW STORM_SPEED STORM_DIR
1946060N07144 1946 17 WP MM NOT_NAMED 1946-03-01 00:00:00 NR 7.20000 143.800 main 1087 1087 __________O___ -1 7.20000 143.800 2 26 266
1946060N07144 1946 17 WP MM NOT_NAMED 1946-03-01 03:00:00 NR 7.11914 142.509 main 1082 1023 __________P___ -1 7.11914 142.509 2 25 266
1946060N07144 1946 17 WP MM NOT_NAMED 1946-03-01 06:00:00 NR 7.03896 141.254 main 1023 986 __________P___ -1 7.03896 141.254 2 24 266
1946060N07144 1946 17 WP MM NOT_NAMED 1946-03-01 09:00:00 NR 6.96423 140.073 main 986 933 __________P___ -1 6.96423 140.073 2 22 266
1946060N07144 1946 17 WP MM NOT_NAMED 1946-03-01 12:00:00 NR 6.90000 139.000 main 929 895 __________O___ -1 6.90000 139.000 2 20 267
1946060N07144 1946 17 WP MM NOT_NAMED 1946-03-01 15:00:00 NR 6.85073 138.056 main 895 859 __________P___ -1 6.85073 138.056 2 18 267
1946060N07144 1946 17 WP MM NOT_NAMED 1946-03-01 18:00:00 NR 6.81768 137.198 main 859 845 __________P___ -1 6.81768 137.198 2 17 268
1946060N07144 1946 17 WP MM NOT_NAMED 1946-03-01 21:00:00 NR 6.80089 136.366 main 845 840 __________P___ -1 6.80089 136.366 2 17 269
1946060N07144 1946 17 WP MM NOT_NAMED 1946-03-02 00:00:00 NR 6.80000 135.500 main 840 812 __________O___ -1 6.80000 135.500 2 19 269
1946060N07144 1946 17 WP MM NOT_NAMED 1946-03-02 03:00:00 NR 6.76607 134.493 main 803 718 __________P___ -1 6.76607 134.493 2 20 269
1946060N07144 1946 17 WP MM NOT_NAMED 1946-03-02 06:00:00 NR 6.75273 133.449 main 709 640 __________P___ -1 6.75273 133.449 2 21 271
1946060N07144 1946 17 WP MM NOT_NAMED 1946-03-02 09:00:00 NR 6.78795 132.405 main 632 543 __________P___ -1 6.78795 132.405 2 20 274
1946060N07144 1946 17 WP MM NOT_NAMED 1946-03-02 12:00:00 NR 6.90000 131.400 main 532 420 __________O___ -1 6.90000 131.400 2 20 280
1946060N07144 1946 17 WP MM NOT_NAMED 1946-03-02 15:00:00 NR 7.12503 130.394 main 420 320 __________P___ -1 7.12503 130.394 2 20 285
1946060N07144 1946 17 WP MM NOT_NAMED 1946-03-02 18:00:00 NR 7.42526 129.442 main 309 220 __________P___ -1 7.42526 129.442 2 19 290
1946060N07144 1946 17 WP MM NOT_NAMED 1946-03-02 21:00:00 NR 7.76279 128.594 main 220 150 __________P___ -1 7.76279 128.594 2 17 294
1946060N07144 1946 17 WP MM NOT_NAMED 1946-03-03 00:00:00 NR 8.10000 127.900 main 150 110 __________O___ -1 8.10000 127.900 2 13 296
1946060N07144 1946 17 WP MM NOT_NAMED 1946-03-03 03:00:00 NR 8.34458 127.388 main 110 74 __________P___ -1 8.34458 127.388 2 10 300
1946060N07144 1946 17 WP MM NOT_NAMED 1946-03-03 06:00:00 NR 8.58878 127.032 main 74 54 __________P___ -1 8.58878 127.032 2 8 311
1946060N07144 1946 17 WP MM NOT_NAMED 1946-03-03 09:00:00 NR 8.86366 126.785 main 56 43 __________P___ -1 8.86366 126.785 2 7 325
1946060N07144 1946 17 WP MM NOT_NAMED 1946-03-03 12:00:00 NR 9.20000 126.600 main 43 34 __________O___ -1 9.20000 126.600 2 8 336
1946060N07144 1946 17 WP MM NOT_NAMED 1946-03-03 15:00:00 NR 9.61950 126.437 main 45 45 __________P___ -1 9.61950 126.437 2 10 341
1946060N07144 1946 17 WP MM NOT_NAMED 1946-03-03 18:00:00 NR 10.1081 126.286 main 74 55 __________P___ -1 10.1081 126.286 2 11 344
1946060N07144 1946 17 WP MM NOT_NAMED 1946-03-03 21:00:00 NR 10.6426 126.141 main 55 21 __________P___ -1 10.6426 126.141 2 11 346
1946060N07144 1946 17 WP MM NOT_NAMED 1946-03-04 00:00:00 NR 11.2000 126.000 main 31 __________O___ -1 11.2000 126.000 2 12 346

Digital Typhoon Data and Search

About IBTrACS Database

This database is a web-friendly format of International Best Track Archive for Climate Stewardship (IBTrACS), a global best track data archive curated by NOAA dating back to 1842.

Updated: 2021-12-03